sensor_id;sensor_type;location;lat;lon;timestamp;P1;durP1;ratioP1;P2;durP2;ratioP2
40012;SDS011;37387;42.672;23.334;2023-04-15T00:00:41;3.4;;;1.2;;
40012;SDS011;37387;42.672;23.334;2023-04-15T00:01:40;4.1;;;1.7;;
40012;SDS011;37387;42.672;23.334;2023-04-15T00:02:41;4.1;;;1.3;;
40012;SDS011;37387;42.672;23.334;2023-04-15T00:03:40;5.0;;;1.4;;
40012;SDS011;37387;42.672;23.334;2023-04-15T00:04:40;3.5;;;1.2;;
40012;SDS011;37387;42.672;23.334;2023-04-15T00:05:40;6.3;;;1.5;;
40012;SDS011;37387;42.672;23.334;2023-04-15T00:06:40;5.5;;;2.2;;
40012;SDS011;37387;42.672;23.334;2023-04-15T00:07:40;5.5;;;1.4;;
40012;SDS011;37387;42.672;23.334;2023-04-15T00:08:40;2.9;;;1.5;;
40012;SDS011;37387;42.672;23.334;2023-04-15T00:10:40;3.9;;;1.6;;
40012;SDS011;37387;42.672;23.334;2023-04-15T00:11:40;4.0;;;1.7;;
40012;SDS011;37387;42.672;23.334;2023-04-15T00:12:40;3.2;;;1.9;;
40012;SDS011;37387;42.672;23.334;2023-04-15T00:13:40;4.4;;;2.0;;
40012;SDS011;37387;42.672;23.334;2023-04-15T00:15:40;4.0;;;1.8;;
40012;SDS011;37387;42.672;23.334;2023-04-15T00:16:40;4.0;;;1.9;;
40012;SDS011;37387;42.672;23.334;2023-04-15T00:18:40;4.1;;;1.8;;
40012;SDS011;37387;42.672;23.334;2023-04-15T00:19:40;4.1;;;1.9;;
40012;SDS011;37387;42.672;23.334;2023-04-15T00:20:40;3.7;;;2.0;;
40012;SDS011;37387;42.672;23.334;2023-04-15T00:21:40;4.8;;;2.1;;
40012;SDS011;37387;42.672;23.334;2023-04-15T00:22:40;4.8;;;2.4;;
40012;SDS011;37387;42.672;23.334;2023-04-15T00:24:40;4.1;;;1.8;;
40012;SDS011;37387;42.672;23.334;2023-04-15T00:25:40;4.1;;;1.4;;
40012;SDS011;37387;42.672;23.334;2023-04-15T00:26:39;3.5;;;1.8;;
40012;SDS011;37387;42.672;23.334;2023-04-15T00:27:39;4.1;;;1.3;;
40012;SDS011;37387;42.672;23.334;2023-04-15T00:28:39;6.1;;;1.7;;
40012;SDS011;37387;42.672;23.334;2023-04-15T00:29:39;6.1;;;1.8;;
40012;SDS011;37387;42.672;23.334;2023-04-15T00:31:39;3.5;;;1.4;;
40012;SDS011;37387;42.672;23.334;2023-04-15T00:32:39;3.5;;;1.2;;
40012;SDS011;37387;42.672;23.334;2023-04-15T00:33:39;6.1;;;1.8;;
40012;SDS011;37387;42.672;23.334;2023-04-15T00:34:39;3.2;;;1.5;;
40012;SDS011;37387;42.672;23.334;2023-04-15T00:35:39;3.1;;;1.7;;
40012;SDS011;37387;42.672;23.334;2023-04-15T00:36:39;3.5;;;1.6;;
40012;SDS011;37387;42.672;23.334;2023-04-15T00:39:39;5.1;;;2.2;;
40012;SDS011;37387;42.672;23.334;2023-04-15T00:40:39;5.1;;;1.3;;
40012;SDS011;37387;42.672;23.334;2023-04-15T00:41:39;2.0;;;1.7;;
40012;SDS011;37387;42.672;23.334;2023-04-15T00:42:39;5.4;;;1.5;;
40012;SDS011;37387;42.672;23.334;2023-04-15T00:43:39;2.3;;;1.4;;
40012;SDS011;37387;42.672;23.334;2023-04-15T00:44:38;2.3;;;1.8;;
40012;SDS011;37387;42.672;23.334;2023-04-15T00:45:38;2.7;;;2.0;;
40012;SDS011;37387;42.672;23.334;2023-04-15T00:46:38;4.5;;;1.8;;
40012;SDS011;37387;42.672;23.334;2023-04-15T00:50:38;4.9;;;1.7;;
40012;SDS011;37387;42.672;23.334;2023-04-15T00:52:38;2.8;;;1.5;;
40012;SDS011;37387;42.672;23.334;2023-04-15T00:55:38;2.5;;;1.4;;
40012;SDS011;37387;42.672;23.334;2023-04-15T00:56:38;2.5;;;1.5;;
40012;SDS011;37387;42.672;23.334;2023-04-15T00:57:38;4.1;;;1.4;;
40012;SDS011;37387;42.672;23.334;2023-04-15T00:59:38;2.8;;;1.7;;
40012;SDS011;37387;42.672;23.334;2023-04-15T01:00:38;2.9;;;1.6;;
40012;SDS011;37387;42.672;23.334;2023-04-15T01:01:38;2.7;;;1.3;;
40012;SDS011;37387;42.672;23.334;2023-04-15T01:02:38;2.7;;;1.4;;
40012;SDS011;37387;42.672;23.334;2023-04-15T01:03:38;3.0;;;2.0;;
40012;SDS011;37387;42.672;23.334;2023-04-15T01:04:38;3.7;;;1.7;;
40012;SDS011;37387;42.672;23.334;2023-04-15T01:05:38;4.4;;;1.9;;
40012;SDS011;37387;42.672;23.334;2023-04-15T01:06:37;4.3;;;2.0;;
40012;SDS011;37387;42.672;23.334;2023-04-15T01:07:37;4.3;;;1.5;;
40012;SDS011;37387;42.672;23.334;2023-04-15T01:08:37;9.9;;;4.2;;
40012;SDS011;37387;42.672;23.334;2023-04-15T01:10:37;44.8;;;2.0;;
40012;SDS011;37387;42.672;23.334;2023-04-15T01:11:37;5.4;;;1.9;;
40012;SDS011;37387;42.672;23.334;2023-04-15T01:12:37;3.1;;;1.5;;
40012;SDS011;37387;42.672;23.334;2023-04-15T01:13:37;3.1;;;1.4;;
40012;SDS011;37387;42.672;23.334;2023-04-15T01:14:37;2.4;;;1.5;;
40012;SDS011;37387;42.672;23.334;2023-04-15T01:15:37;4.2;;;1.8;;
40012;SDS011;37387;42.672;23.334;2023-04-15T01:16:37;4.1;;;1.7;;
40012;SDS011;37387;42.672;23.334;2023-04-15T01:17:37;3.8;;;1.8;;
40012;SDS011;37387;42.672;23.334;2023-04-15T01:18:37;3.8;;;1.9;;
40012;SDS011;37387;42.672;23.334;2023-04-15T01:19:37;3.6;;;1.8;;
40012;SDS011;37387;42.672;23.334;2023-04-15T01:20:37;5.5;;;2.0;;
40012;SDS011;37387;42.672;23.334;2023-04-15T01:21:37;2.7;;;1.6;;
40012;SDS011;37387;42.672;23.334;2023-04-15T01:22:37;2.7;;;1.7;;
40012;SDS011;37387;42.672;23.334;2023-04-15T01:23:37;3.1;;;1.6;;
40012;SDS011;37387;42.672;23.334;2023-04-15T01:24:37;5.4;;;1.7;;
40012;SDS011;37387;42.672;23.334;2023-04-15T01:25:36;4.5;;;1.8;;
40012;SDS011;37387;42.672;23.334;2023-04-15T01:26:36;3.1;;;1.5;;
40012;SDS011;37387;42.672;23.334;2023-04-15T01:27:36;3.1;;;1.7;;
40012;SDS011;37387;42.672;23.334;2023-04-15T01:28:36;3.0;;;2.2;;
40012;SDS011;37387;42.672;23.334;2023-04-15T01:29:37;3.0;;;1.7;;
40012;SDS011;37387;42.672;23.334;2023-04-15T01:30:36;3.0;;;2.0;;
40012;SDS011;37387;42.672;23.334;2023-04-15T01:31:36;3.7;;;2.1;;
40012;SDS011;37387;42.672;23.334;2023-04-15T01:32:36;3.7;;;1.8;;
40012;SDS011;37387;42.672;23.334;2023-04-15T01:33:36;5.2;;;1.9;;
40012;SDS011;37387;42.672;23.334;2023-04-15T01:34:36;3.5;;;2.0;;
40012;SDS011;37387;42.672;23.334;2023-04-15T01:35:36;2.4;;;1.6;;
40012;SDS011;37387;42.672;23.334;2023-04-15T01:36:36;2.4;;;2.0;;
40012;SDS011;37387;42.672;23.334;2023-04-15T01:38:36;5.3;;;2.3;;
40012;SDS011;37387;42.672;23.334;2023-04-15T01:40:36;7.1;;;2.4;;
40012;SDS011;37387;42.672;23.334;2023-04-15T01:41:36;7.1;;;2.1;;
40012;SDS011;37387;42.672;23.334;2023-04-15T01:42:36;4.2;;;2.2;;
40012;SDS011;37387;42.672;23.334;2023-04-15T01:43:35;4.1;;;1.9;;
40012;SDS011;37387;42.672;23.334;2023-04-15T01:45:35;5.1;;;2.5;;
40012;SDS011;37387;42.672;23.334;2023-04-15T01:46:36;5.1;;;2.3;;
40012;SDS011;37387;42.672;23.334;2023-04-15T01:48:35;4.4;;;2.4;;
40012;SDS011;37387;42.672;23.334;2023-04-15T01:49:35;5.0;;;1.7;;
40012;SDS011;37387;42.672;23.334;2023-04-15T01:50:35;5.0;;;2.1;;
40012;SDS011;37387;42.672;23.334;2023-04-15T01:52:35;3.5;;;2.2;;
40012;SDS011;37387;42.672;23.334;2023-04-15T01:53:35;3.5;;;2.5;;
40012;SDS011;37387;42.672;23.334;2023-04-15T01:54:35;5.1;;;2.2;;
40012;SDS011;37387;42.672;23.334;2023-04-15T01:55:35;4.3;;;2.1;;
40012;SDS011;37387;42.672;23.334;2023-04-15T01:56:35;7.0;;;2.9;;
40012;SDS011;37387;42.672;23.334;2023-04-15T01:57:34;7.0;;;2.3;;
40012;SDS011;37387;42.672;23.334;2023-04-15T01:59:34;5.6;;;1.8;;
40012;SDS011;37387;42.672;23.334;2023-04-15T02:01:34;4.4;;;2.1;;
40012;SDS011;37387;42.672;23.334;2023-04-15T02:02:34;5.0;;;2.3;;
40012;SDS011;37387;42.672;23.334;2023-04-15T02:03:34;5.0;;;2.0;;
40012;SDS011;37387;42.672;23.334;2023-04-15T02:04:34;4.0;;;1.9;;
40012;SDS011;37387;42.672;23.334;2023-04-15T02:05:34;4.6;;;2.4;;
40012;SDS011;37387;42.672;23.334;2023-04-15T02:06:34;4.6;;;2.2;;
40012;SDS011;37387;42.672;23.334;2023-04-15T02:07:34;5.0;;;2.3;;
40012;SDS011;37387;42.672;23.334;2023-04-15T02:08:34;5.0;;;1.9;;
40012;SDS011;37387;42.672;23.334;2023-04-15T02:09:34;3.0;;;2.2;;
40012;SDS011;37387;42.672;23.334;2023-04-15T02:10:34;6.3;;;2.0;;
40012;SDS011;37387;42.672;23.334;2023-04-15T02:11:34;3.6;;;2.1;;
40012;SDS011;37387;42.672;23.334;2023-04-15T02:12:34;3.3;;;2.3;;
40012;SDS011;37387;42.672;23.334;2023-04-15T02:13:34;4.6;;;2.0;;
40012;SDS011;37387;42.672;23.334;2023-04-15T02:14:34;4.1;;;1.9;;
40012;SDS011;37387;42.672;23.334;2023-04-15T02:15:34;3.3;;;2.2;;
40012;SDS011;37387;42.672;23.334;2023-04-15T02:16:33;3.3;;;2.6;;
40012;SDS011;37387;42.672;23.334;2023-04-15T02:17:33;5.5;;;2.3;;
40012;SDS011;37387;42.672;23.334;2023-04-15T02:18:33;3.6;;;2.4;;
40012;SDS011;37387;42.672;23.334;2023-04-15T02:19:33;5.0;;;2.5;;
40012;SDS011;37387;42.672;23.334;2023-04-15T02:20:33;3.5;;;2.0;;
40012;SDS011;37387;42.672;23.334;2023-04-15T02:22:33;4.5;;;1.9;;
40012;SDS011;37387;42.672;23.334;2023-04-15T02:23:33;4.5;;;1.8;;
40012;SDS011;37387;42.672;23.334;2023-04-15T02:25:33;4.6;;;1.9;;
40012;SDS011;37387;42.672;23.334;2023-04-15T02:26:33;3.6;;;2.0;;
40012;SDS011;37387;42.672;23.334;2023-04-15T02:27:33;3.6;;;2.1;;
40012;SDS011;37387;42.672;23.334;2023-04-15T02:28:33;3.0;;;1.8;;
40012;SDS011;37387;42.672;23.334;2023-04-15T02:29:33;4.4;;;2.0;;
40012;SDS011;37387;42.672;23.334;2023-04-15T02:30:33;4.4;;;2.4;;
40012;SDS011;37387;42.672;23.334;2023-04-15T02:31:33;4.6;;;2.3;;
40012;SDS011;37387;42.672;23.334;2023-04-15T02:32:32;4.6;;;2.4;;
40012;SDS011;37387;42.672;23.334;2023-04-15T02:33:32;4.0;;;1.9;;
40012;SDS011;37387;42.672;23.334;2023-04-15T02:34:32;3.2;;;1.8;;
40012;SDS011;37387;42.672;23.334;2023-04-15T02:35:32;3.2;;;2.2;;
40012;SDS011;37387;42.672;23.334;2023-04-15T02:36:32;3.3;;;2.0;;
40012;SDS011;37387;42.672;23.334;2023-04-15T02:37:34;4.1;;;2.1;;
40012;SDS011;37387;42.672;23.334;2023-04-15T02:39:32;4.9;;;2.9;;
40012;SDS011;37387;42.672;23.334;2023-04-15T02:40:32;6.1;;;2.8;;
40012;SDS011;37387;42.672;23.334;2023-04-15T02:41:32;6.1;;;2.3;;
40012;SDS011;37387;42.672;23.334;2023-04-15T02:43:32;5.3;;;2.4;;
40012;SDS011;37387;42.672;23.334;2023-04-15T02:44:32;5.3;;;2.0;;
40012;SDS011;37387;42.672;23.334;2023-04-15T02:46:32;5.5;;;2.8;;
40012;SDS011;37387;42.672;23.334;2023-04-15T02:47:31;5.5;;;2.3;;
40012;SDS011;37387;42.672;23.334;2023-04-15T02:48:32;3.8;;;2.6;;
40012;SDS011;37387;42.672;23.334;2023-04-15T02:49:31;3.8;;;2.2;;
40012;SDS011;37387;42.672;23.334;2023-04-15T02:50:31;4.7;;;1.9;;
40012;SDS011;37387;42.672;23.334;2023-04-15T02:51:31;3.9;;;2.5;;
40012;SDS011;37387;42.672;23.334;2023-04-15T02:52:31;3.9;;;2.0;;
40012;SDS011;37387;42.672;23.334;2023-04-15T02:53:31;3.7;;;2.1;;
40012;SDS011;37387;42.672;23.334;2023-04-15T02:54:31;3.7;;;2.2;;
40012;SDS011;37387;42.672;23.334;2023-04-15T02:55:31;4.4;;;2.1;;
40012;SDS011;37387;42.672;23.334;2023-04-15T02:56:31;4.3;;;2.4;;
40012;SDS011;37387;42.672;23.334;2023-04-15T02:57:31;3.9;;;2.2;;
40012;SDS011;37387;42.672;23.334;2023-04-15T02:58:31;4.7;;;2.5;;
40012;SDS011;37387;42.672;23.334;2023-04-15T03:00:31;4.6;;;2.6;;
40012;SDS011;37387;42.672;23.334;2023-04-15T03:01:30;5.2;;;2.9;;
40012;SDS011;37387;42.672;23.334;2023-04-15T03:02:32;5.2;;;2.5;;
40012;SDS011;37387;42.672;23.334;2023-04-15T03:03:30;6.7;;;2.6;;
40012;SDS011;37387;42.672;23.334;2023-04-15T03:04:30;5.2;;;3.2;;
40012;SDS011;37387;42.672;23.334;2023-04-15T03:05:30;8.4;;;3.4;;
40012;SDS011;37387;42.672;23.334;2023-04-15T03:06:30;8.4;;;3.6;;
40012;SDS011;37387;42.672;23.334;2023-04-15T03:07:30;7.7;;;3.3;;
40012;SDS011;37387;42.672;23.334;2023-04-15T03:08:30;7.9;;;3.4;;
40012;SDS011;37387;42.672;23.334;2023-04-15T03:09:30;5.7;;;3.0;;
40012;SDS011;37387;42.672;23.334;2023-04-15T03:10:30;7.0;;;3.1;;
40012;SDS011;37387;42.672;23.334;2023-04-15T03:11:30;9.3;;;4.1;;
40012;SDS011;37387;42.672;23.334;2023-04-15T03:12:30;9.3;;;3.1;;
40012;SDS011;37387;42.672;23.334;2023-04-15T03:14:30;5.5;;;2.6;;
40012;SDS011;37387;42.672;23.334;2023-04-15T03:15:31;5.5;;;3.2;;
40012;SDS011;37387;42.672;23.334;2023-04-15T03:16:29;7.1;;;2.9;;
40012;SDS011;37387;42.672;23.334;2023-04-15T03:18:29;5.2;;;3.0;;
40012;SDS011;37387;42.672;23.334;2023-04-15T03:19:29;5.7;;;3.3;;
40012;SDS011;37387;42.672;23.334;2023-04-15T03:21:29;7.3;;;3.0;;
40012;SDS011;37387;42.672;23.334;2023-04-15T03:22:29;6.8;;;2.8;;
40012;SDS011;37387;42.672;23.334;2023-04-15T03:24:29;8.4;;;3.9;;
40012;SDS011;37387;42.672;23.334;2023-04-15T03:25:29;5.6;;;3.1;;
40012;SDS011;37387;42.672;23.334;2023-04-15T03:26:29;5.6;;;2.8;;
40012;SDS011;37387;42.672;23.334;2023-04-15T03:27:28;5.5;;;2.5;;
40012;SDS011;37387;42.672;23.334;2023-04-15T03:28:28;5.2;;;2.8;;
40012;SDS011;37387;42.672;23.334;2023-04-15T03:30:28;7.6;;;3.7;;
40012;SDS011;37387;42.672;23.334;2023-04-15T03:31:28;4.2;;;2.6;;
40012;SDS011;37387;42.672;23.334;2023-04-15T03:33:28;4.9;;;2.7;;
40012;SDS011;37387;42.672;23.334;2023-04-15T03:34:28;4.8;;;2.6;;
40012;SDS011;37387;42.672;23.334;2023-04-15T03:35:28;4.8;;;2.7;;
40012;SDS011;37387;42.672;23.334;2023-04-15T03:36:28;5.2;;;3.0;;
40012;SDS011;37387;42.672;23.334;2023-04-15T03:37:27;8.4;;;2.6;;
40012;SDS011;37387;42.672;23.334;2023-04-15T03:39:27;5.2;;;2.4;;
40012;SDS011;37387;42.672;23.334;2023-04-15T03:40:27;3.9;;;2.2;;
40012;SDS011;37387;42.672;23.334;2023-04-15T03:41:27;3.9;;;2.6;;
40012;SDS011;37387;42.672;23.334;2023-04-15T03:42:27;5.3;;;2.4;;
40012;SDS011;37387;42.672;23.334;2023-04-15T03:43:27;3.1;;;2.1;;
40012;SDS011;37387;42.672;23.334;2023-04-15T03:44:27;3.1;;;2.2;;
40012;SDS011;37387;42.672;23.334;2023-04-15T03:45:27;4.1;;;2.7;;
40012;SDS011;37387;42.672;23.334;2023-04-15T03:47:27;6.5;;;2.5;;
40012;SDS011;37387;42.672;23.334;2023-04-15T03:48:27;4.6;;;2.2;;
40012;SDS011;37387;42.672;23.334;2023-04-15T03:49:26;5.7;;;2.7;;
40012;SDS011;37387;42.672;23.334;2023-04-15T03:50:26;5.7;;;2.2;;
40012;SDS011;37387;42.672;23.334;2023-04-15T03:51:26;6.5;;;2.3;;
40012;SDS011;37387;42.672;23.334;2023-04-15T03:52:26;4.6;;;2.8;;
40012;SDS011;37387;42.672;23.334;2023-04-15T03:53:26;4.8;;;2.9;;
40012;SDS011;37387;42.672;23.334;2023-04-15T03:54:26;6.5;;;2.7;;
40012;SDS011;37387;42.672;23.334;2023-04-15T03:55:26;6.5;;;2.8;;
40012;SDS011;37387;42.672;23.334;2023-04-15T03:56:26;4.5;;;2.3;;
40012;SDS011;37387;42.672;23.334;2023-04-15T03:57:26;5.0;;;2.7;;
40012;SDS011;37387;42.672;23.334;2023-04-15T03:58:26;4.9;;;2.9;;
40012;SDS011;37387;42.672;23.334;2023-04-15T03:59:26;5.9;;;2.5;;
40012;SDS011;37387;42.672;23.334;2023-04-15T04:00:25;4.9;;;2.4;;
40012;SDS011;37387;42.672;23.334;2023-04-15T04:02:25;5.5;;;3.0;;
40012;SDS011;37387;42.672;23.334;2023-04-15T04:03:25;5.2;;;2.3;;
40012;SDS011;37387;42.672;23.334;2023-04-15T04:04:25;4.7;;;2.4;;
40012;SDS011;37387;42.672;23.334;2023-04-15T04:05:25;4.6;;;2.7;;
40012;SDS011;37387;42.672;23.334;2023-04-15T04:06:25;6.0;;;2.5;;
40012;SDS011;37387;42.672;23.334;2023-04-15T04:07:25;4.0;;;2.3;;
40012;SDS011;37387;42.672;23.334;2023-04-15T04:08:25;4.3;;;2.6;;
40012;SDS011;37387;42.672;23.334;2023-04-15T04:09:25;4.3;;;2.5;;
40012;SDS011;37387;42.672;23.334;2023-04-15T04:10:25;6.4;;;2.4;;
40012;SDS011;37387;42.672;23.334;2023-04-15T04:11:25;4.3;;;2.5;;
40012;SDS011;37387;42.672;23.334;2023-04-15T04:12:25;4.5;;;2.6;;
40012;SDS011;37387;42.672;23.334;2023-04-15T04:13:24;4.5;;;2.9;;
40012;SDS011;37387;42.672;23.334;2023-04-15T04:14:24;6.0;;;2.5;;
40012;SDS011;37387;42.672;23.334;2023-04-15T04:15:24;4.5;;;2.6;;
40012;SDS011;37387;42.672;23.334;2023-04-15T04:17:24;4.3;;;3.3;;
40012;SDS011;37387;42.672;23.334;2023-04-15T04:18:24;4.8;;;2.8;;
40012;SDS011;37387;42.672;23.334;2023-04-15T04:19:24;5.6;;;2.7;;
40012;SDS011;37387;42.672;23.334;2023-04-15T04:20:24;5.1;;;2.8;;
40012;SDS011;37387;42.672;23.334;2023-04-15T04:22:24;6.4;;;2.9;;
40012;SDS011;37387;42.672;23.334;2023-04-15T04:23:24;6.4;;;2.2;;
40012;SDS011;37387;42.672;23.334;2023-04-15T04:24:24;4.0;;;2.8;;
40012;SDS011;37387;42.672;23.334;2023-04-15T04:25:24;7.1;;;3.2;;
40012;SDS011;37387;42.672;23.334;2023-04-15T04:26:24;7.1;;;2.7;;
40012;SDS011;37387;42.672;23.334;2023-04-15T04:27:23;5.6;;;2.5;;
40012;SDS011;37387;42.672;23.334;2023-04-15T04:28:23;3.7;;;2.4;;
40012;SDS011;37387;42.672;23.334;2023-04-15T04:29:23;3.7;;;2.5;;
40012;SDS011;37387;42.672;23.334;2023-04-15T04:31:23;3.9;;;2.1;;
40012;SDS011;37387;42.672;23.334;2023-04-15T04:32:23;5.9;;;2.5;;
40012;SDS011;37387;42.672;23.334;2023-04-15T04:34:23;4.4;;;2.3;;
40012;SDS011;37387;42.672;23.334;2023-04-15T04:35:23;4.4;;;2.5;;
40012;SDS011;37387;42.672;23.334;2023-04-15T04:36:23;4.0;;;2.1;;
40012;SDS011;37387;42.672;23.334;2023-04-15T04:37:23;4.8;;;2.3;;
40012;SDS011;37387;42.672;23.334;2023-04-15T04:38:23;4.8;;;2.4;;
40012;SDS011;37387;42.672;23.334;2023-04-15T04:39:23;4.3;;;2.3;;
40012;SDS011;37387;42.672;23.334;2023-04-15T04:40:23;4.7;;;2.7;;
40012;SDS011;37387;42.672;23.334;2023-04-15T04:41:23;4.7;;;2.1;;
40012;SDS011;37387;42.672;23.334;2023-04-15T04:42:23;4.8;;;2.4;;
40012;SDS011;37387;42.672;23.334;2023-04-15T04:44:23;6.8;;;3.4;;
40012;SDS011;37387;42.672;23.334;2023-04-15T04:45:23;6.8;;;3.2;;
40012;SDS011;37387;42.672;23.334;2023-04-15T04:46:23;5.8;;;3.1;;
40012;SDS011;37387;42.672;23.334;2023-04-15T04:47:23;5.8;;;2.7;;
40012;SDS011;37387;42.672;23.334;2023-04-15T04:49:23;5.9;;;3.2;;
40012;SDS011;37387;42.672;23.334;2023-04-15T04:50:23;6.8;;;3.0;;
40012;SDS011;37387;42.672;23.334;2023-04-15T04:51:23;6.8;;;2.2;;
40012;SDS011;37387;42.672;23.334;2023-04-15T04:52:23;4.3;;;3.1;;
40012;SDS011;37387;42.672;23.334;2023-04-15T04:53:23;5.3;;;2.6;;
40012;SDS011;37387;42.672;23.334;2023-04-15T04:54:23;5.3;;;3.2;;
40012;SDS011;37387;42.672;23.334;2023-04-15T04:56:23;5.9;;;4.1;;
40012;SDS011;37387;42.672;23.334;2023-04-15T04:57:23;9.1;;;3.4;;
40012;SDS011;37387;42.672;23.334;2023-04-15T04:58:23;5.2;;;3.5;;
40012;SDS011;37387;42.672;23.334;2023-04-15T04:59:23;5.7;;;3.7;;
40012;SDS011;37387;42.672;23.334;2023-04-15T05:00:23;5.7;;;3.3;;
40012;SDS011;37387;42.672;23.334;2023-04-15T05:01:23;9.4;;;4.9;;
40012;SDS011;37387;42.672;23.334;2023-04-15T05:02:23;9.4;;;4.7;;
40012;SDS011;37387;42.672;23.334;2023-04-15T05:03:24;7.6;;;4.0;;
40012;SDS011;37387;42.672;23.334;2023-04-15T05:04:24;7.2;;;3.1;;
40012;SDS011;37387;42.672;23.334;2023-04-15T05:05:24;5.8;;;3.2;;
40012;SDS011;37387;42.672;23.334;2023-04-15T05:06:24;7.6;;;3.4;;
40012;SDS011;37387;42.672;23.334;2023-04-15T05:07:24;7.6;;;3.5;;
40012;SDS011;37387;42.672;23.334;2023-04-15T05:08:24;5.7;;;3.0;;
40012;SDS011;37387;42.672;23.334;2023-04-15T05:10:24;5.3;;;3.5;;
40012;SDS011;37387;42.672;23.334;2023-04-15T05:11:24;5.7;;;3.4;;
40012;SDS011;37387;42.672;23.334;2023-04-15T05:12:24;5.7;;;3.3;;
40012;SDS011;37387;42.672;23.334;2023-04-15T05:13:24;5.7;;;3.5;;
40012;SDS011;37387;42.672;23.334;2023-04-15T05:14:24;5.8;;;4.0;;
40012;SDS011;37387;42.672;23.334;2023-04-15T05:15:24;8.5;;;3.5;;
40012;SDS011;37387;42.672;23.334;2023-04-15T05:16:24;6.5;;;3.3;;
40012;SDS011;37387;42.672;23.334;2023-04-15T05:18:24;6.6;;;2.8;;
40012;SDS011;37387;42.672;23.334;2023-04-15T05:19:24;6.8;;;2.9;;
40012;SDS011;37387;42.672;23.334;2023-04-15T05:20:24;6.8;;;2.6;;
40012;SDS011;37387;42.672;23.334;2023-04-15T05:21:24;5.1;;;2.7;;
40012;SDS011;37387;42.672;23.334;2023-04-15T05:22:24;4.2;;;2.8;;
40012;SDS011;37387;42.672;23.334;2023-04-15T05:23:24;5.3;;;2.9;;
40012;SDS011;37387;42.672;23.334;2023-04-15T05:24:24;5.3;;;2.7;;
40012;SDS011;37387;42.672;23.334;2023-04-15T05:25:24;5.2;;;2.6;;
40012;SDS011;37387;42.672;23.334;2023-04-15T05:26:24;5.2;;;3.1;;
40012;SDS011;37387;42.672;23.334;2023-04-15T05:27:25;5.3;;;2.6;;
40012;SDS011;37387;42.672;23.334;2023-04-15T05:28:25;5.5;;;2.8;;
40012;SDS011;37387;42.672;23.334;2023-04-15T05:29:25;5.5;;;2.9;;
40012;SDS011;37387;42.672;23.334;2023-04-15T05:30:25;5.9;;;2.6;;
40012;SDS011;37387;42.672;23.334;2023-04-15T05:31:25;5.2;;;2.7;;
40012;SDS011;37387;42.672;23.334;2023-04-15T05:32:25;4.5;;;3.3;;
40012;SDS011;37387;42.672;23.334;2023-04-15T05:33:25;6.0;;;2.5;;
40012;SDS011;37387;42.672;23.334;2023-04-15T05:34:25;4.7;;;2.8;;
40012;SDS011;37387;42.672;23.334;2023-04-15T05:35:27;5.1;;;2.5;;
40012;SDS011;37387;42.672;23.334;2023-04-15T05:36:25;4.9;;;2.8;;
40012;SDS011;37387;42.672;23.334;2023-04-15T05:37:25;4.8;;;2.7;;
40012;SDS011;37387;42.672;23.334;2023-04-15T05:38:25;4.8;;;2.5;;
40012;SDS011;37387;42.672;23.334;2023-04-15T05:39:25;3.3;;;2.2;;
40012;SDS011;37387;42.672;23.334;2023-04-15T05:40:25;3.3;;;2.3;;
40012;SDS011;37387;42.672;23.334;2023-04-15T05:41:25;3.6;;;2.4;;
40012;SDS011;37387;42.672;23.334;2023-04-15T05:42:25;5.6;;;3.0;;
40012;SDS011;37387;42.672;23.334;2023-04-15T05:43:25;5.6;;;3.1;;
40012;SDS011;37387;42.672;23.334;2023-04-15T05:44:26;6.2;;;2.4;;
40012;SDS011;37387;42.672;23.334;2023-04-15T05:45:26;4.4;;;2.3;;
40012;SDS011;37387;42.672;23.334;2023-04-15T05:46:26;3.5;;;2.1;;
40012;SDS011;37387;42.672;23.334;2023-04-15T05:47:26;3.5;;;2.7;;
40012;SDS011;37387;42.672;23.334;2023-04-15T05:48:26;4.5;;;2.6;;
40012;SDS011;37387;42.672;23.334;2023-04-15T05:49:26;4.8;;;2.5;;
40012;SDS011;37387;42.672;23.334;2023-04-15T05:50:26;4.8;;;2.6;;
40012;SDS011;37387;42.672;23.334;2023-04-15T05:51:26;5.8;;;2.5;;
40012;SDS011;37387;42.672;23.334;2023-04-15T05:52:26;4.9;;;2.4;;
40012;SDS011;37387;42.672;23.334;2023-04-15T05:53:26;3.8;;;2.5;;
40012;SDS011;37387;42.672;23.334;2023-04-15T05:55:26;4.2;;;2.2;;
40012;SDS011;37387;42.672;23.334;2023-04-15T05:56:26;4.1;;;2.3;;
40012;SDS011;37387;42.672;23.334;2023-04-15T05:59:27;4.5;;;2.6;;
40012;SDS011;37387;42.672;23.334;2023-04-15T06:00:27;4.0;;;2.5;;
40012;SDS011;37387;42.672;23.334;2023-04-15T06:01:27;5.8;;;2.7;;
40012;SDS011;37387;42.672;23.334;2023-04-15T06:02:27;6.1;;;3.1;;
40012;SDS011;37387;42.672;23.334;2023-04-15T06:03:27;6.1;;;3.2;;
40012;SDS011;37387;42.672;23.334;2023-04-15T06:04:27;5.7;;;2.6;;
40012;SDS011;37387;42.672;23.334;2023-04-15T06:05:27;5.2;;;2.8;;
40012;SDS011;37387;42.672;23.334;2023-04-15T06:06:27;4.5;;;2.7;;
40012;SDS011;37387;42.672;23.334;2023-04-15T06:07:27;6.3;;;3.1;;
40012;SDS011;37387;42.672;23.334;2023-04-15T06:08:27;6.0;;;2.8;;
40012;SDS011;37387;42.672;23.334;2023-04-15T06:09:28;5.5;;;3.2;;
40012;SDS011;37387;42.672;23.334;2023-04-15T06:10:28;4.7;;;3.0;;
40012;SDS011;37387;42.672;23.334;2023-04-15T06:11:28;4.7;;;2.5;;
40012;SDS011;37387;42.672;23.334;2023-04-15T06:13:28;4.2;;;2.8;;
40012;SDS011;37387;42.672;23.334;2023-04-15T06:14:28;7.7;;;3.0;;
40012;SDS011;37387;42.672;23.334;2023-04-15T06:15:28;4.4;;;2.5;;
40012;SDS011;37387;42.672;23.334;2023-04-15T06:16:28;4.4;;;2.6;;
40012;SDS011;37387;42.672;23.334;2023-04-15T06:17:28;6.3;;;2.4;;
40012;SDS011;37387;42.672;23.334;2023-04-15T06:18:28;6.3;;;2.1;;
40012;SDS011;37387;42.672;23.334;2023-04-15T06:19:28;3.6;;;2.4;;
40012;SDS011;37387;42.672;23.334;2023-04-15T06:20:28;3.6;;;2.3;;
40012;SDS011;37387;42.672;23.334;2023-04-15T06:21:28;3.7;;;2.4;;
40012;SDS011;37387;42.672;23.334;2023-04-15T06:22:28;4.8;;;2.0;;
40012;SDS011;37387;42.672;23.334;2023-04-15T06:23:28;4.8;;;2.3;;
40012;SDS011;37387;42.672;23.334;2023-04-15T06:25:29;4.7;;;1.9;;
40012;SDS011;37387;42.672;23.334;2023-04-15T06:26:29;4.5;;;2.4;;
40012;SDS011;37387;42.672;23.334;2023-04-15T06:27:29;4.5;;;2.3;;
40012;SDS011;37387;42.672;23.334;2023-04-15T06:28:29;4.8;;;2.0;;
40012;SDS011;37387;42.672;23.334;2023-04-15T06:29:29;3.8;;;2.5;;
40012;SDS011;37387;42.672;23.334;2023-04-15T06:30:29;3.1;;;2.3;;
40012;SDS011;37387;42.672;23.334;2023-04-15T06:31:29;4.9;;;2.1;;
40012;SDS011;37387;42.672;23.334;2023-04-15T06:34:29;4.6;;;2.0;;
40012;SDS011;37387;42.672;23.334;2023-04-15T06:35:30;3.6;;;2.1;;
40012;SDS011;37387;42.672;23.334;2023-04-15T06:36:30;3.6;;;1.9;;
40012;SDS011;37387;42.672;23.334;2023-04-15T06:37:30;3.7;;;2.2;;
40012;SDS011;37387;42.672;23.334;2023-04-15T06:38:30;3.7;;;2.5;;
40012;SDS011;37387;42.672;23.334;2023-04-15T06:40:30;3.3;;;2.3;;
40012;SDS011;37387;42.672;23.334;2023-04-15T06:41:30;3.3;;;2.0;;
40012;SDS011;37387;42.672;23.334;2023-04-15T06:42:30;4.0;;;2.3;;
40012;SDS011;37387;42.672;23.334;2023-04-15T06:44:30;4.1;;;2.8;;
40012;SDS011;37387;42.672;23.334;2023-04-15T06:45:31;4.4;;;2.4;;
40012;SDS011;37387;42.672;23.334;2023-04-15T06:46:31;3.3;;;2.2;;
40012;SDS011;37387;42.672;23.334;2023-04-15T06:47:31;4.6;;;2.7;;
40012;SDS011;37387;42.672;23.334;2023-04-15T06:48:31;4.7;;;2.6;;
40012;SDS011;37387;42.672;23.334;2023-04-15T06:49:31;4.4;;;2.4;;
40012;SDS011;37387;42.672;23.334;2023-04-15T06:50:31;4.4;;;2.2;;
40012;SDS011;37387;42.672;23.334;2023-04-15T06:52:31;5.1;;;2.5;;
40012;SDS011;37387;42.672;23.334;2023-04-15T06:53:32;5.8;;;3.1;;
40012;SDS011;37387;42.672;23.334;2023-04-15T06:54:32;5.8;;;3.6;;
40012;SDS011;37387;42.672;23.334;2023-04-15T06:55:32;4.6;;;2.4;;
40012;SDS011;37387;42.672;23.334;2023-04-15T06:56:32;3.8;;;2.5;;
40012;SDS011;37387;42.672;23.334;2023-04-15T06:57:32;3.8;;;2.6;;
40012;SDS011;37387;42.672;23.334;2023-04-15T06:58:32;4.3;;;2.5;;
40012;SDS011;37387;42.672;23.334;2023-04-15T06:59:32;4.9;;;2.8;;
40012;SDS011;37387;42.672;23.334;2023-04-15T07:00:32;5.4;;;2.5;;
40012;SDS011;37387;42.672;23.334;2023-04-15T07:01:32;5.4;;;2.9;;
40012;SDS011;37387;42.672;23.334;2023-04-15T07:02:32;5.2;;;3.0;;